Time;durP1;ratioP1;P1;durP2;ratioP2;P2;SDS_P1;SDS_P2;PMS_P1;PMS_P2;Temp;Humidity;BMP_temperature;BMP_pressure;BME280_temperature;BME280_humidity;BME280_pressure;Samples;Min_cycle;Max_cycle;Signal;HPM_P1;HPM_P2
2022/07/19 00:00:07;;;;;;;5.72;3.35;;;;;;;15.57;100.00;100161.02;1710030;84;21045;-83
2022/07/19 00:02:34;;;;;;;6.37;2.72;;;;;;;15.55;100.00;100161.20;1681909;85;21629;-83
2022/07/19 00:05:01;;;;;;;5.08;3.15;;;;;;;15.53;100.00;100161.11;1710349;84;21021;-84
2022/07/19 00:07:28;;;;;;;5.83;3.22;;;;;;;15.51;100.00;100161.30;1681904;85;21037;-85
2022/07/19 00:09:54;;;;;;;3.52;3.10;;;;;;;15.49;100.00;100159.30;1710314;84;21001;-85
2022/07/19 00:12:22;;;;;;;4.53;3.00;;;;;;;15.47;100.00;100156.44;1682068;85;21451;-85
2022/07/19 00:14:49;;;;;;;4.28;2.98;;;;;;;15.42;100.00;100154.30;1710078;84;21037;-85
2022/07/19 00:17:17;;;;;;;5.97;2.95;;;;;;;15.39;100.00;100157.45;1689721;85;21004;-85
2022/07/19 00:19:44;;;;;;;5.20;2.77;;;;;;;15.36;100.00;100151.03;1721595;83;21019;-84
2022/07/19 00:22:11;;;;;;;7.80;3.00;;;;;;;15.34;100.00;100144.41;1727408;83;21050;-86
2022/07/19 00:24:40;;;;;;;12.80;3.77;;;;;;;15.31;100.00;100147.53;1721595;83;21082;-85
2022/07/19 00:27:07;;;;;;;4.62;3.17;;;;;;;15.30;100.00;100147.23;1721971;83;21046;-85
2022/07/19 00:29:33;;;;;;;6.33;3.00;;;;;;;15.28;100.00;100152.03;1727108;83;21024;-86
2022/07/19 00:32:00;;;;;;;3.47;2.72;;;;;;;15.26;100.00;100145.92;1721599;83;21079;-85
2022/07/19 00:34:26;;;;;;;3.77;3.00;;;;;;;15.24;100.00;100146.64;1721464;83;20999;-85
2022/07/19 00:36:53;;;;;;;3.25;2.95;;;;;;;15.22;100.00;100143.28;1727219;83;21090;-85
2022/07/19 00:39:20;;;;;;;3.47;2.60;;;;;;;15.17;100.00;100143.90;1721433;83;20981;-85
2022/07/19 00:41:47;;;;;;;3.95;3.17;;;;;;;15.11;100.00;100136.50;1721644;83;21536;-85
2022/07/19 00:44:14;;;;;;;3.45;2.75;;;;;;;15.08;100.00;100134.17;1727083;83;21076;-86
2022/07/19 00:46:41;;;;;;;4.05;2.75;;;;;;;15.03;100.00;100133.92;1721906;83;20989;-86
2022/07/19 00:49:08;;;;;;;7.87;3.00;;;;;;;14.98;100.00;100127.73;1721535;83;21043;-86
2022/07/19 00:51:40;;;;;;;4.55;2.80;;;;;;;14.94;100.00;100135.11;1743155;81;20977;-85
2022/07/19 00:54:07;;;;;;;5.77;3.00;;;;;;;14.90;100.00;100134.66;1765063;81;21037;-85
2022/07/19 00:56:33;;;;;;;2.92;2.50;;;;;;;14.87;100.00;100136.41;1764911;81;20954;-85
2022/07/19 00:59:04;;;;;;;5.17;2.70;;;;;;;14.83;100.00;100139.22;1763348;81;21045;-85
2022/07/19 01:01:33;;;;;;;3.87;2.87;;;;;;;14.83;100.00;100139.22;1762681;81;21397;-85
2022/07/19 01:04:00;;;;;;;4.08;2.92;;;;;;;14.81;100.00;100142.66;1762234;81;21017;-85
2022/07/19 01:06:27;;;;;;;4.80;2.65;;;;;;;14.76;100.00;100141.04;1762682;81;20988;-85
2022/07/19 01:08:54;;;;;;;2.70;2.40;;;;;;;14.76;100.00;100141.87;1762403;81;20989;-84
2022/07/19 01:11:21;;;;;;;2.77;2.58;;;;;;;14.76;100.00;100142.41;1762469;81;20997;-85
2022/07/19 01:13:48;;;;;;;5.65;2.60;;;;;;;14.77;100.00;100146.82;1762732;81;20977;-85
2022/07/19 01:16:16;;;;;;;2.60;2.40;;;;;;;14.73;100.00;100148.23;1758995;81;21053;-86
2022/07/19 01:18:44;;;;;;;2.95;2.50;;;;;;;14.73;100.00;100148.23;1793800;80;21002;-86
2022/07/19 01:21:22;;;;;;;3.87;2.80;;;;;;;14.73;100.00;100157.26;1794237;80;21594;-85
2022/07/19 01:23:49;;;;;;;4.65;2.47;;;;;;;14.72;100.00;100153.37;1729152;83;21039;-85
2022/07/19 01:26:17;;;;;;;4.20;2.50;;;;;;;14.70;100.00;100159.53;1728726;83;21079;-85
2022/07/19 01:28:45;;;;;;;2.45;2.25;;;;;;;14.67;100.00;100158.02;1728673;82;21595;-85
2022/07/19 01:31:14;;;;;;;2.72;2.25;;;;;;;14.66;100.00;100154.12;1728526;83;21011;-84
2022/07/19 01:33:43;;;;;;;2.92;2.25;;;;;;;14.64;100.00;100160.30;1728440;83;21591;-84
2022/07/19 01:36:10;;;;;;;3.02;2.55;;;;;;;14.58;100.00;100153.23;1704471;83;21580;-85
2022/07/19 01:38:38;;;;;;;2.98;2.60;;;;;;;14.58;100.00;100153.23;1728313;83;21517;-85
2022/07/19 01:41:06;;;;;;;4.62;2.42;;;;;;;14.60;100.00;100154.40;1728276;83;21054;-85
2022/07/19 01:43:33;;;;;;;2.60;2.40;;;;;;;14.59;100.00;100154.92;1728707;83;20994;-84
2022/07/19 01:46:01;;;;;;;2.58;2.25;;;;;;;14.57;100.00;100154.75;1728468;83;21093;-85
2022/07/19 01:48:29;;;;;;;4.50;2.25;;;;;;;14.54;100.00;100159.23;1728661;83;21038;-85
2022/07/19 01:50:56;;;;;;;2.95;2.52;;;;;;;14.54;100.00;100159.23;1728699;83;21026;-85
2022/07/19 01:53:24;;;;;;;2.40;2.20;;;;;;;14.50;100.00;100154.70;1728703;83;21046;-84
2022/07/19 01:55:51;;;;;;;3.50;2.47;;;;;;;14.48;100.00;100145.03;1727795;83;21003;-85
2022/07/19 01:58:18;;;;;;;4.60;2.70;;;;;;;14.44;100.00;100149.50;1727452;83;21034;-85
2022/07/19 02:00:46;;;;;;;2.98;2.65;;;;;;;14.41;100.00;100150.40;1727176;83;21082;-85
2022/07/19 02:03:12;;;;;;;4.47;2.55;;;;;;;14.41;100.00;100153.13;1727148;83;21548;-85
2022/07/19 02:05:39;;;;;;;4.33;2.70;;;;;;;14.38;100.00;100155.73;1727250;83;21478;-84
2022/07/19 02:08:05;;;;;;;4.90;2.80;;;;;;;14.38;100.00;100157.09;1727250;83;20995;-83
2022/07/19 02:10:32;;;;;;;4.85;2.22;;;;;;;14.39;100.00;100159.28;1727208;83;21046;-85
2022/07/19 02:12:59;;;;;;;3.47;2.62;;;;;;;14.37;100.00;100151.31;1727100;83;21090;-84
2022/07/19 02:15:26;;;;;;;2.40;2.20;;;;;;;14.35;100.00;100149.83;1727203;83;21050;-84
2022/07/19 02:17:53;;;;;;;2.87;2.35;;;;;;;14.35;100.00;100154.74;1729364;83;21560;-84
2022/07/19 02:20:19;;;;;;;5.20;2.15;;;;;;;14.33;100.00;100156.81;1748779;81;21014;-84
2022/07/19 02:22:48;;;;;;;4.28;2.30;;;;;;;14.32;100.00;100157.84;1777121;81;21000;-85
2022/07/19 02:25:15;;;;;;;5.17;2.45;;;;;;;14.29;100.00;100160.97;1777110;80;21001;-86
2022/07/19 02:27:42;;;;;;;4.65;2.30;;;;;;;14.32;100.00;100167.36;1777073;80;21020;-85
2022/07/19 02:30:11;;;;;;;4.47;2.60;;;;;;;14.31;100.00;100162.97;1777273;80;20997;-85
2022/07/19 02:32:39;;;;;;;6.62;2.42;;;;;;;14.28;100.00;100159.27;1777399;81;21001;-86
2022/07/19 02:35:08;;;;;;;4.12;2.50;;;;;;;14.29;100.00;100156.89;1777447;81;21028;-85
2022/07/19 02:37:35;;;;;;;2.98;2.30;;;;;;;14.29;100.00;100161.46;1777419;81;21010;-85
2022/07/19 02:40:03;;;;;;;6.25;3.12;;;;;;;14.30;100.00;100161.80;1777453;81;21008;-85
2022/07/19 02:42:30;;;;;;;4.75;2.70;;;;;;;14.30;100.00;100163.16;1777205;81;21025;-85
2022/07/19 02:44:57;;;;;;;6.42;2.80;;;;;;;14.31;100.00;100162.97;1777413;81;21021;-86
2022/07/19 02:47:24;;;;;;;4.30;3.20;;;;;;;14.30;100.00;100161.27;1777156;81;20985;-86
2022/07/19 02:49:50;;;;;;;7.42;3.40;;;;;;;14.31;100.00;100163.50;1777607;81;21533;-85
2022/07/19 02:52:17;;;;;;;3.25;2.95;;;;;;;14.30;100.00;100158.55;1777328;81;21008;-86
2022/07/19 02:54:44;;;;;;;6.05;3.52;;;;;;;14.30;100.00;100164.00;1777573;81;20985;-85
2022/07/19 02:57:11;;;;;;;6.67;3.47;;;;;;;14.31;100.00;100164.33;1777283;80;21009;-86
2022/07/19 02:59:38;;;;;;;8.03;3.67;;;;;;;14.32;100.00;100163.80;1777423;81;20985;-86
2022/07/19 03:02:05;;;;;;;6.45;3.55;;;;;;;14.34;100.00;100158.52;1777015;80;21025;-85
2022/07/19 03:04:33;;;;;;;6.53;3.75;;;;;;;14.36;100.00;100157.80;1777280;81;21558;-86
2022/07/19 03:06:59;;;;;;;6.60;3.77;;;;;;;14.38;100.00;100159.80;1776943;80;21551;-85
2022/07/19 03:09:26;;;;;;;7.12;3.85;;;;;;;14.41;100.00;100160.78;1777329;80;21021;-86
2022/07/19 03:11:53;;;;;;;4.92;3.50;;;;;;;14.43;100.00;100166.88;1777009;81;21526;-86
2022/07/19 03:14:20;;;;;;;3.42;3.10;;;;;;;14.47;100.00;100163.77;1777321;81;20993;-85
2022/07/19 03:16:47;;;;;;;5.62;3.42;;;;;;;14.50;100.00;100160.14;1776376;80;21479;-86
2022/07/19 03:19:14;;;;;;;5.10;3.37;;;;;;;14.53;100.00;100162.45;1772475;81;20993;-86
2022/07/19 03:21:41;;;;;;;7.37;4.08;;;;;;;14.56;100.00;100165.33;1772691;80;21017;-84
2022/07/19 03:24:08;;;;;;;6.00;3.95;;;;;;;14.60;100.00;100166.11;1772704;80;21040;-86
2022/07/19 03:26:34;;;;;;;5.65;3.80;;;;;;;14.64;100.00;100168.45;1772738;81;21000;-86
2022/07/19 03:29:01;;;;;;;5.80;3.77;;;;;;;14.66;100.00;100167.24;1772695;80;21519;-86
2022/07/19 03:31:29;;;;;;;4.47;3.58;;;;;;;14.75;100.00;100178.31;1772757;80;20997;-86
2022/07/19 03:33:55;;;;;;;6.65;4.12;;;;;;;14.75;100.00;100178.31;1772817;81;20985;-86
2022/07/19 03:36:22;;;;;;;8.28;4.67;;;;;;;14.80;100.00;100173.13;1751120;81;21024;-87
2022/07/19 03:38:49;;;;;;;12.33;6.22;;;;;;;14.87;100.00;100176.41;1772686;80;21092;-85
2022/07/19 03:41:17;;;;;;;14.87;7.60;;;;;;;14.93;100.00;100177.84;1772523;80;21044;-86
2022/07/19 03:43:44;;;;;;;15.43;8.28;;;;;;;14.99;100.00;100177.04;1772918;81;21052;-86
2022/07/19 03:46:11;;;;;;;17.85;8.60;;;;;;;15.08;100.00;100166.02;1772906;80;20981;-86
2022/07/19 03:48:38;;;;;;;14.68;7.95;;;;;;;15.18;100.00;100182.86;1772317;80;21033;-85
2022/07/19 03:51:05;;;;;;;15.53;7.22;;;;;;;15.29;100.00;100180.94;1772573;80;21028;-86
2022/07/19 03:53:34;;;;;;;15.48;7.62;;;;;;;15.43;100.00;100187.86;1750845;81;21083;-84
2022/07/19 03:56:01;;;;;;;13.53;7.30;;;;;;;15.56;100.00;100187.93;1772733;80;20980;-86
2022/07/19 03:58:28;;;;;;;14.63;7.00;;;;;;;15.66;100.00;100191.14;1772795;81;21033;-86
2022/07/19 04:00:56;;;;;;;11.53;6.35;;;;;;;15.78;100.00;100191.46;1772614;81;21464;-85
2022/07/19 04:03:22;;;;;;;8.85;5.50;;;;;;;15.89;100.00;100197.70;1773361;80;21076;-84
2022/07/19 04:05:49;;;;;;;13.43;5.55;;;;;;;16.00;100.00;100214.53;1773215;81;20981;-84
2022/07/19 04:08:17;;;;;;;8.93;4.47;;;;;;;16.09;100.00;100219.59;1772868;81;21029;-85
2022/07/19 04:10:44;;;;;;;8.33;4.92;;;;;;;16.20;100.00;100227.75;1774502;80;21000;-85
2022/07/19 04:13:11;;;;;;;6.70;4.08;;;;;;;16.30;100.00;100240.47;1775782;80;21018;-84
2022/07/19 04:15:38;;;;;;;9.78;4.67;;;;;;;16.41;100.00;100245.86;1774082;80;21044;-85
2022/07/19 04:18:05;;;;;;;11.70;4.67;;;;;;;16.52;100.00;100258.10;1772989;80;21001;-84
2022/07/19 04:20:32;;;;;;;9.28;4.75;;;;;;;16.63;100.00;100270.31;1772890;81;21047;-84
2022/07/19 04:23:01;;;;;;;15.65;5.03;;;;;;;16.75;100.00;100271.40;1772604;80;21089;-85
2022/07/19 04:25:28;;;;;;;10.35;4.45;;;;;;;16.88;100.00;100282.37;1772903;81;21032;-84
2022/07/19 04:27:56;;;;;;;11.20;5.15;;;;;;;17.05;100.00;100295.63;1772502;80;21460;-85
2022/07/19 04:30:23;;;;;;;11.20;5.55;;;;;;;17.27;100.00;100305.34;1772748;81;21045;-85
2022/07/19 04:32:50;;;;;;;8.78;5.33;;;;;;;17.50;100.00;100313.66;1772558;81;21496;-85
2022/07/19 04:35:17;;;;;;;10.45;4.72;;;;;;;17.73;100.00;100321.98;1772840;81;21511;-85
2022/07/19 04:37:45;;;;;;;8.43;4.80;;;;;;;17.96;100.00;100339.34;1772549;80;21009;-84
2022/07/19 04:40:12;;;;;;;7.50;4.55;;;;;;;18.19;100.00;100347.93;1772477;81;21048;-76
2022/07/19 04:42:39;;;;;;;5.08;3.42;;;;;;;18.41;100.00;100358.61;1771969;80;21056;-81
2022/07/19 04:45:07;;;;;;;15.32;4.03;;;;;;;18.65;100.00;100368.56;1778544;80;20986;-75
2022/07/19 04:47:34;;;;;;;31.93;23.50;;;;;;;18.85;100.00;100380.29;1785945;80;20971;-75
2022/07/19 04:50:01;;;;;;;18.45;11.20;;;;;;;19.05;100.00;100385.70;1789887;80;21023;-78
2022/07/19 04:52:29;;;;;;;18.63;9.13;;;;;;;19.29;100.00;100396.95;1760301;81;21009;-78
2022/07/19 04:54:56;;;;;;;15.05;7.47;;;;;;;19.51;100.00;100409.77;1760477;81;21028;-79
2022/07/19 04:57:23;;;;;;;18.12;10.70;;;;;;;19.68;100.00;100423.27;1790540;80;20939;-80
2022/07/19 04:59:50;;;;;;;42.03;33.85;;;;;;;19.91;100.00;100430.94;1791051;80;21031;-77
2022/07/19 05:02:17;;;;;;;24.40;18.77;;;;;;;20.14;100.00;100439.64;1790823;80;21458;-77
2022/07/19 05:04:44;;;;;;;96.12;82.65;;;;;;;20.35;100.00;100452.12;1790698;79;20976;-76
2022/07/19 05:07:11;;;;;;;27.93;22.02;;;;;;;20.58;100.00;100458.34;1790784;80;21470;-72
2022/07/19 05:09:38;;;;;;;129.03;111.03;;;;;;;20.80;100.00;100465.09;1790843;80;21481;-73
2022/07/19 05:12:07;;;;;;;34.43;29.60;;;;;;;21.01;100.00;100469.29;1790952;80;20924;-73
2022/07/19 05:14:35;;;;;;;16.07;10.68;;;;;;;21.21;100.00;100473.70;1791133;80;21050;-72
2022/07/19 05:17:02;;;;;;;6.97;4.55;;;;;;;21.41;100.00;100482.55;1792504;79;21082;-73
2022/07/19 05:19:29;;;;;;;11.00;3.42;;;;;;;21.58;100.00;100497.92;1779732;79;20967;-74
2022/07/19 05:21:56;;;;;;;36.10;26.15;;;;;;;21.73;100.00;100504.91;1787163;79;21564;-76
2022/07/19 05:24:23;;;;;;;44.30;36.13;;;;;;;21.81;100.00;100511.45;1808433;79;21031;-77
2022/07/19 05:26:50;;;;;;;59.03;48.10;;;;;;;21.91;100.00;100515.02;1780264;79;20981;-78
2022/07/19 05:29:17;;;;;;;19.65;13.32;;;;;;;22.07;100.00;100519.02;1786330;79;21038;-78
2022/07/19 05:31:44;;;;;;;227.85;180.25;;;;;;;22.27;100.00;100517.34;1791684;79;21007;-76
2022/07/19 05:34:10;;;;;;;63.10;56.85;;;;;;;22.48;100.00;100518.70;1789664;79;21055;-78
2022/07/19 05:36:39;;;;;;;22.95;17.75;;;;;;;22.70;100.00;100523.06;1797122;79;21026;-75
2022/07/19 05:39:06;;;;;;;22.75;14.40;;;;;;;22.89;100.00;100527.92;1809926;79;21015;-75
2022/07/19 05:41:35;;;;;;;7.10;5.17;;;;;;;23.09;100.00;100534.48;1810305;79;21493;-76
2022/07/19 05:44:02;;;;;;;4.97;3.17;;;;;;;23.26;100.00;100527.11;1810250;79;20999;-74
2022/07/19 05:46:30;;;;;;;5.35;2.92;;;;;;;23.45;100.00;100525.58;1810212;79;21573;-74
2022/07/19 05:48:57;;;;;;;3.22;2.20;;;;;;;23.64;100.00;100522.93;1810263;79;21054;-73
2022/07/19 05:51:24;;;;;;;4.78;2.37;;;;;;;23.79;100.00;100533.97;1810542;79;21497;-77
2022/07/19 05:53:51;;;;;;;17.23;4.10;;;;;;;23.92;100.00;100537.00;1810277;79;21006;-77
2022/07/19 05:56:18;;;;;;;8.13;2.77;;;;;;;24.01;100.00;100539.13;1793693;79;21581;-76
2022/07/19 05:58:45;;;;;;;3.75;2.80;;;;;;;24.16;100.00;100541.87;1777713;81;21432;-76
2022/07/19 06:01:17;;;;;;;2.40;2.10;;;;;;;24.31;100.00;100546.28;1775328;79;21432;-76
2022/07/19 06:03:51;;;;;;;7.22;2.42;;;;;;;24.51;100.00;100551.86;1775649;79;20970;-77
2022/07/19 06:06:20;;;;;;;5.85;2.85;;;;;;;24.71;100.00;100549.99;1777137;79;21030;-78
2022/07/19 06:08:47;;;;;;;6.00;2.40;;;;;;;24.90;100.00;100551.39;1785972;79;21516;-78
2022/07/19 06:11:15;;;;;;;2.45;1.40;;;;;;;25.09;100.00;100556.63;1776351;79;21542;-75
2022/07/19 06:13:45;;;;;;;11.00;3.25;;;;;;;25.15;100.00;100563.92;1791848;79;20999;-74
2022/07/19 06:16:13;;;;;;;7.47;3.10;;;;;;;25.14;100.00;100560.84;1810524;79;21568;-74
2022/07/19 06:18:40;;;;;;;6.97;2.30;;;;;;;25.25;100.00;100570.16;1815676;79;21050;-75
2022/07/19 06:21:12;;;;;;;3.62;2.20;;;;;;;25.43;100.00;100564.33;1819014;79;20985;-75
2022/07/19 06:23:39;;;;;;;4.58;2.50;;;;;;;25.58;100.00;100565.05;1755694;81;21041;-75
2022/07/19 06:26:10;;;;;;;7.30;2.80;;;;;;;25.66;100.00;100567.38;1731818;82;21003;-77
2022/07/19 06:28:44;;;;;;;9.23;4.05;;;;;;;25.81;100.00;100573.63;1680300;84;21071;-76
2022/07/19 06:31:11;;;;;;;24.90;18.65;;;;;;;25.98;100.00;100570.81;1689392;83;21562;-73
2022/07/19 06:33:41;;;;;;;21.33;13.75;;;;;;;26.17;100.00;100571.82;1733830;82;21520;-75
2022/07/19 06:36:08;;;;;;;13.80;6.12;;;;;;;26.25;100.00;100573.57;1640853;86;21499;-75
2022/07/19 06:38:35;;;;;;;6.25;3.75;;;;;;;26.36;100.00;100576.44;1641966;86;21086;-77
2022/07/19 06:41:02;;;;;;;9.80;4.58;;;;;;;26.44;100.00;100576.80;1642948;87;21120;-74
2022/07/19 06:43:29;;;;;;;23.45;4.22;;;;;;;26.62;100.00;100571.99;1642441;87;21139;-75
2022/07/19 06:45:56;;;;;;;13.93;4.55;;;;;;;26.80;100.00;100574.90;1642685;87;21544;-75
2022/07/19 06:48:23;;;;;;;11.12;4.42;;;;;;;26.99;100.00;100573.36;1641786;87;21109;-76
2022/07/19 06:50:51;;;;;;;12.50;7.55;;;;;;;27.20;100.00;100578.48;1641341;87;21042;-77
2022/07/19 06:53:18;;;;;;;12.37;5.15;;;;;;;27.44;100.00;100566.97;1603775;89;21538;-78
2022/07/19 06:55:45;;;;;;;9.03;3.72;;;;;;;27.43;99.68;100575.03;1624865;87;21082;-75
2022/07/19 06:58:12;;;;;;;14.98;4.58;;;;;;;26.88;90.93;100581.34;1642708;87;21180;-74
2022/07/19 07:00:39;;;;;;;9.73;4.83;;;;;;;26.63;98.59;100581.44;1642870;87;21041;-76
2022/07/19 07:03:05;;;;;;;15.48;5.58;;;;;;;26.72;100.00;100574.84;1642713;87;21591;-76
2022/07/19 07:05:33;;;;;;;11.63;4.70;;;;;;;26.84;100.00;100571.33;1642503;87;21089;-77
2022/07/19 07:08:00;;;;;;;11.88;5.40;;;;;;;27.08;100.00;100577.86;1642901;87;21034;-76
2022/07/19 07:10:27;;;;;;;11.33;5.17;;;;;;;27.36;100.00;100570.28;1642980;87;21081;-75
2022/07/19 07:12:54;;;;;;;9.33;4.70;;;;;;;27.59;100.00;100573.16;1641974;87;21081;-77
2022/07/19 07:15:21;;;;;;;4.95;3.80;;;;;;;27.82;100.00;100574.06;1642119;87;21037;-75
2022/07/19 07:17:48;;;;;;;3.02;2.72;;;;;;;28.07;94.76;100573.05;1642948;87;21493;-76
2022/07/19 07:20:16;;;;;;;7.12;3.62;;;;;;;28.24;88.93;100571.39;1642925;87;21174;-77
2022/07/19 07:22:43;;;;;;;8.53;3.85;;;;;;;28.27;91.56;100570.28;1642031;87;21147;-76
2022/07/19 07:25:11;;;;;;;7.67;3.62;;;;;;;28.32;91.47;100573.07;1642164;87;21061;-75
2022/07/19 07:27:42;;;;;;;16.90;4.12;;;;;;;28.47;85.56;100570.84;1642150;87;21029;-76
2022/07/19 07:30:13;;;;;;;40.03;4.97;;;;;;;28.56;88.82;100569.77;1642028;87;21128;-76
2022/07/19 07:32:41;;;;;;;6.30;3.20;;;;;;;28.79;88.58;100566.96;1690970;81;21577;-75
2022/07/19 07:35:08;;;;;;;3.62;2.90;;;;;;;28.97;82.25;100573.34;1762203;81;21495;-75
2022/07/19 07:37:35;;;;;;;8.18;3.55;;;;;;;29.09;76.64;100576.37;1761687;81;21064;-78
2022/07/19 07:40:02;;;;;;;3.55;2.90;;;;;;;29.21;80.48;100570.55;1761659;81;21106;-76
2022/07/19 07:42:32;;;;;;;11.85;3.35;;;;;;;29.38;78.86;100562.69;1761802;81;21011;-78
2022/07/19 07:45:00;;;;;;;10.03;3.65;;;;;;;29.52;75.72;100567.92;1762404;81;21019;-77
2022/07/19 07:47:27;;;;;;;5.67;4.03;;;;;;;29.61;76.76;100568.16;1762357;81;21007;-78
2022/07/19 07:49:54;;;;;;;16.65;4.50;;;;;;;29.76;75.48;100567.84;1763110;81;21000;-77
2022/07/19 07:52:21;;;;;;;4.35;3.40;;;;;;;29.85;73.95;100560.53;1762855;81;21490;-79
2022/07/19 07:54:48;;;;;;;23.65;5.47;;;;;;;29.82;73.55;100566.14;1763907;81;21510;-80
2022/07/19 07:57:16;;;;;;;4.33;2.47;;;;;;;29.78;70.27;100564.20;1733601;81;21175;-76
2022/07/19 07:59:43;;;;;;;3.80;2.70;;;;;;;29.77;64.04;100560.59;1762110;81;21057;-76
2022/07/19 08:02:09;;;;;;;6.22;2.77;;;;;;;29.84;65.95;100558.89;1761724;81;21113;-76
2022/07/19 08:04:36;;;;;;;6.58;3.45;;;;;;;30.02;64.34;100557.38;1762073;81;21040;-76
2022/07/19 08:07:03;;;;;;;5.00;3.10;;;;;;;30.16;64.22;100548.64;1761845;81;21049;-76
2022/07/19 08:09:31;;;;;;;3.80;2.25;;;;;;;30.31;65.62;100549.64;1762226;81;21041;-76
2022/07/19 08:11:57;;;;;;;4.92;2.17;;;;;;;30.43;65.88;100550.95;1762088;81;21013;-79
2022/07/19 08:14:25;;;;;;;5.35;2.45;;;;;;;30.48;65.37;100545.91;1761848;81;21009;-72
2022/07/19 08:16:53;;;;;;;25.72;9.13;;;;;;;30.59;63.95;100548.86;1757265;82;21058;-73
2022/07/19 08:19:21;;;;;;;9.50;3.37;;;;;;;30.73;64.57;100550.41;1757750;81;21017;-73
2022/07/19 08:21:48;;;;;;;5.42;2.83;;;;;;;30.89;63.59;100551.09;1760202;81;21075;-73
2022/07/19 08:24:17;;;;;;;4.45;1.80;;;;;;;31.04;64.63;100547.32;1760746;81;20949;-74
2022/07/19 08:26:45;;;;;;;14.98;3.50;;;;;;;31.17;63.93;100550.00;1760907;81;21057;-74
2022/07/19 08:29:12;;;;;;;15.53;3.30;;;;;;;31.23;62.71;100548.79;1760897;81;21025;-73
2022/07/19 08:31:40;;;;;;;21.30;3.40;;;;;;;31.16;59.23;100555.30;1761063;81;21020;-73
2022/07/19 08:34:11;;;;;;;4.90;2.42;;;;;;;31.02;56.83;100551.83;1735400;81;21061;-74
2022/07/19 08:36:38;;;;;;;5.15;2.17;;;;;;;31.00;56.07;100547.66;1735266;81;21571;-74
2022/07/19 08:39:05;;;;;;;5.65;2.52;;;;;;;30.99;55.48;100547.41;1760972;81;21016;-73
2022/07/19 08:41:34;;;;;;;2.83;2.15;;;;;;;31.03;55.41;100537.30;1760860;81;21033;-73
2022/07/19 08:44:03;;;;;;;4.65;2.05;;;;;;;31.09;56.27;100536.09;1761043;81;20965;-74
2022/07/19 08:46:30;;;;;;;2.72;1.62;;;;;;;31.00;54.09;100523.92;1761258;81;21024;-72
2022/07/19 08:48:57;;;;;;;1.30;1.10;;;;;;;30.93;55.12;100527.63;1760839;81;21000;-72
2022/07/19 08:51:24;;;;;;;3.10;1.60;;;;;;;30.91;54.05;100529.86;1761284;81;20993;-74
2022/07/19 08:53:51;;;;;;;19.48;4.00;;;;;;;30.83;53.47;100525.19;1735250;81;20978;-75
2022/07/19 08:59:07;;;;;;;5.83;2.60;;;;;;;31.11;55.04;100536.66;1758585;81;21600;-73
2022/07/19 09:01:34;;;;;;;3.47;1.72;;;;;;;31.30;52.90;100528.31;1758956;81;21507;-77
2022/07/19 09:04:13;;;;;;;23.42;18.75;;;;;;;31.14;49.10;100523.48;1759281;81;21053;-74
2022/07/19 09:06:46;;;;;;;4.45;3.33;;;;;;;30.88;49.05;100520.67;1758669;81;21085;-74
2022/07/19 09:09:18;;;;;;;1.47;1.42;;;;;;;30.87;49.33;100525.44;1759152;81;21049;-78
2022/07/19 09:11:50;;;;;;;10.10;2.77;;;;;;;30.91;49.45;100520.91;1759093;81;21083;-76
2022/07/19 09:14:26;;;;;;;3.87;3.40;;;;;;;30.98;51.69;100524.78;1758732;81;20998;-76
2022/07/19 09:17:06;;;;;;;3.58;1.42;;;;;;;31.04;50.25;100525.84;1757993;81;21086;-76
2022/07/19 09:19:39;;;;;;;6.90;1.90;;;;;;;30.87;46.54;100513.45;1757065;81;21070;-75
2022/07/19 09:22:15;;;;;;;2.80;1.67;;;;;;;30.47;49.86;100521.91;1757045;82;21121;-76
2022/07/19 09:24:48;;;;;;;3.27;2.20;;;;;;;30.47;49.86;100521.91;1757227;82;21030;-76
2022/07/19 09:27:20;;;;;;;4.67;1.90;;;;;;;30.65;50.27;100514.76;1757400;81;21077;-80
2022/07/19 09:29:48;;;;;;;8.65;2.52;;;;;;;30.57;49.65;100512.05;1639803;87;21007;-73
2022/07/19 09:32:19;;;;;;;8.93;2.58;;;;;;;30.34;47.56;100513.66;1640485;87;21059;-71
2022/07/19 09:34:55;;;;;;;6.80;1.87;;;;;;;29.97;47.74;100517.81;1615016;89;21000;-72
2022/07/19 09:37:27;;;;;;;5.25;1.98;;;;;;;29.57;47.46;100520.25;1613368;89;21043;-73
2022/07/19 09:39:58;;;;;;;24.27;3.50;;;;;;;29.14;49.35;100513.16;1641103;87;21441;-73
2022/07/19 09:42:39;;;;;;;2.77;1.72;;;;;;;29.17;51.34;100511.80;1594449;90;21593;-73
2022/07/19 09:45:09;;;;;;;2.12;1.52;;;;;;;29.51;52.43;100506.92;1620042;89;21073;-75
2022/07/19 09:47:43;;;;;;;5.45;3.80;;;;;;;30.00;50.76;100504.70;1620000;89;21082;-75
2022/07/19 09:50:16;;;;;;;3.17;2.50;;;;;;;30.43;48.52;100506.31;1620104;89;21070;-75
2022/07/19 09:52:45;;;;;;;3.30;2.60;;;;;;;30.71;45.97;100499.64;1618714;89;21101;-77
2022/07/19 09:55:12;;;;;;;2.95;1.92;;;;;;;30.94;45.23;100500.81;1615376;89;21090;-74
2022/07/19 09:57:48;;;;;;;3.47;2.70;;;;;;;31.18;43.84;100493.84;1615720;89;21043;-77
2022/07/19 10:00:20;;;;;;;5.65;2.75;;;;;;;31.38;44.12;100483.53;1597867;89;21046;-75
2022/07/19 10:02:57;;;;;;;3.77;2.50;;;;;;;31.44;43.44;100477.30;1608683;89;21060;-74
2022/07/19 10:05:25;;;;;;;2.75;2.08;;;;;;;31.32;43.25;100479.95;1594011;90;21540;-76
2022/07/19 10:07:52;;;;;;;13.20;3.08;;;;;;;31.29;43.63;100476.38;1593709;90;21081;-75
2022/07/19 10:10:20;;;;;;;10.10;2.47;;;;;;;31.17;43.01;100471.22;1593730;90;21097;-75
2022/07/19 10:12:48;;;;;;;4.50;2.70;;;;;;;30.79;43.31;100485.05;1594031;90;21119;-75
2022/07/19 10:15:17;;;;;;;19.40;4.42;;;;;;;30.54;44.81;100479.15;1593179;90;21579;-75
2022/07/19 10:17:56;;;;;;;3.47;1.90;;;;;;;30.72;45.10;100484.57;1606991;89;21136;-76
2022/07/19 10:20:24;;;;;;;5.08;2.37;;;;;;;30.99;43.12;100481.22;1517227;93;21613;-74
2022/07/19 10:22:51;;;;;;;3.80;3.40;;;;;;;31.18;41.37;100474.29;1515120;95;21158;-77
2022/07/19 10:25:19;;;;;;;3.17;2.42;;;;;;;31.32;42.37;100472.97;1515457;95;21176;-78
2022/07/19 10:27:54;;;;;;;25.92;4.53;;;;;;;31.53;42.83;100471.33;1572457;91;21108;-80
2022/07/19 10:30:26;;;;;;;4.67;2.87;;;;;;;31.77;42.85;100465.67;1554070;91;21097;-75
2022/07/19 10:32:55;;;;;;;3.08;2.77;;;;;;;32.05;43.07;100458.81;1547944;93;21267;-77
2022/07/19 10:35:30;;;;;;;2.90;1.80;;;;;;;32.16;41.51;100460.32;1572595;91;21034;-78
2022/07/19 10:38:08;;;;;;;9.98;2.62;;;;;;;32.15;40.06;100451.08;1476632;97;21120;-78
2022/07/19 10:40:56;;;;;;;34.67;5.15;;;;;;;32.20;40.08;100457.16;1557113;92;21138;-78
2022/07/19 10:43:23;;;;;;;4.00;3.47;;;;;;;32.32;42.41;100451.91;1562576;90;21605;-72
2022/07/19 10:46:02;;;;;;;5.03;2.27;;;;;;;32.55;40.15;100444.48;1564267;92;21094;-73
2022/07/19 10:48:50;;;;;;;3.45;2.90;;;;;;;32.72;40.79;100441.13;1564364;92;21066;-73
2022/07/19 10:51:28;;;;;;;5.50;2.22;;;;;;;32.66;38.32;100441.53;1564572;92;21565;-73
2022/07/19 10:54:07;;;;;;;4.78;2.12;;;;;;;32.19;38.73;100436.48;1564233;92;21083;-77
2022/07/19 10:56:37;;;;;;;3.10;2.77;;;;;;;31.88;38.03;100443.98;1576903;90;21081;-74
2022/07/19 10:59:09;;;;;;;8.15;2.87;;;;;;;31.80;37.29;100444.08;1636354;88;21026;-77
2022/07/19 11:01:38;;;;;;;4.83;2.83;;;;;;;31.71;36.25;100442.54;1667578;86;21014;-75
2022/07/19 11:04:28;;;;;;;1.87;1.22;;;;;;;31.86;38.03;100442.06;1637053;88;21047;-73
2022/07/19 11:07:16;;;;;;;4.12;1.82;;;;;;;31.98;37.99;100427.04;1636667;87;21051;-71
2022/07/19 11:09:55;;;;;;;7.65;4.05;;;;;;;32.13;37.27;100439.95;1635877;88;21102;-72
2022/07/19 11:12:29;;;;;;;2.80;2.60;;;;;;;32.23;37.59;100431.93;1637298;88;21580;-73
2022/07/19 11:14:57;;;;;;;2.67;2.40;;;;;;;32.32;37.97;100435.12;1637157;88;21050;-74
2022/07/19 11:17:24;;;;;;;2.50;2.25;;;;;;;32.43;37.59;100435.77;1636900;88;21090;-74
2022/07/19 11:20:06;;;;;;;19.02;3.65;;;;;;;32.49;37.58;100433.70;1639956;87;21107;-73
2022/07/19 11:22:35;;;;;;;5.70;3.12;;;;;;;32.55;38.59;100433.30;1664566;86;21069;-73
2022/07/19 11:25:03;;;;;;;4.90;1.75;;;;;;;32.71;39.15;100434.44;1663415;86;21072;-73